Bootsie B, — WDF9484 — position and weather

sailwx.info

Track history (hours):
 
Tides and Currents Weather Stations Pressure Air Temp Water Temp Dewpoint Dewpoint Depression Visibility Wind Speed Wind Dir Waves Ship Positions

Bootsie B,

Owner: Marquette Transp[ortation Co. LLC, Paducah, KY. More information available from US FCC via Universal Licensing System and Coast Guard Vessel Documentation Center.

Last reported at 2014-Oct-31 07:25 UTC. Time now 2014-Oct-31 07:53 UTC.
Position N 30°04' W 090°54'.

Length 57 m; draft 2 m.

Type: Towing. MMSI: 367505630.

Date/timePositionNaut miles runAvg speedWind from/ knotsBaromVisibWave heightAir tempDewpointWater temp
2014-Oct-31 07:25N 30°04' W 090°54'4 3.9
2014-Oct-31 06:28N 30°02' W 090°50'3 3.0
2014-Oct-31 05:33N 29°59' W 090°50'0 0.0
2014-Oct-31 04:29N 29°59' W 090°50'0 0.0
2014-Oct-30 13:28N 29°59' W 090°50'0 0.0
2014-Oct-30 12:33N 29°59' W 090°50'0 0.0
2014-Oct-30 11:31N 29°59' W 090°50'19 0.8
2014-Oct-29 13:04N 30°02' W 090°28'0 0.1
2014-Oct-29 12:33N 30°02' W 090°28'5 0.2
2014-Oct-28 09:20N 30°03' W 090°34'0 0.0
2014-Oct-28 08:09N 30°03' W 090°34'1 1.2
2014-Oct-28 07:14N 30°03' W 090°35'5 6.3
2014-Oct-28 06:31N 30°03' W 090°41'7 7.5
2014-Oct-28 05:32N 29°59' W 090°48'  
Track history (hours):
 
Tides and Currents Weather Stations Pressure Air Temp Water Temp Dewpoint Dewpoint Depression Visibility Wind Speed Wind Dir Waves Ship Positions

Bootsie B,

Owner: Marquette Transp[ortation Co. LLC, Paducah, KY. More information available from US FCC via Universal Licensing System and Coast Guard Vessel Documentation Center.

Last reported at 2014-Oct-31 07:25 UTC. Time now 2014-Oct-31 07:53 UTC.
Position N 30°04' W 090°54'.

Length 57 m; draft 2 m.

Type: Towing. MMSI: 367505630.

Date/timePositionNaut miles runAvg speedWind from/ knotsBaromVisibWave heightAir tempDewpointWater temp
2014-Oct-31 07:25N 30°04' W 090°54'4 3.9
2014-Oct-31 06:28N 30°02' W 090°50'3 3.0
2014-Oct-31 05:33N 29°59' W 090°50'0 0.0
2014-Oct-31 04:29N 29°59' W 090°50'0 0.0
2014-Oct-30 13:28N 29°59' W 090°50'0 0.0
2014-Oct-30 12:33N 29°59' W 090°50'0 0.0
2014-Oct-30 11:31N 29°59' W 090°50'19 0.8
2014-Oct-29 13:04N 30°02' W 090°28'0 0.1
2014-Oct-29 12:33N 30°02' W 090°28'5 0.2
2014-Oct-28 09:20N 30°03' W 090°34'0 0.0
2014-Oct-28 08:09N 30°03' W 090°34'1 1.2
2014-Oct-28 07:14N 30°03' W 090°35'5 6.3
2014-Oct-28 06:31N 30°03' W 090°41'7 7.5
2014-Oct-28 05:32N 29°59' W 090°48'  

Dump ship's entire track history